createdAt,value
2018-03-30T00:00:44.905Z,44.77
2018-03-30T00:03:12.580Z,42.30
2018-03-30T00:05:40.258Z,46.60
2018-03-30T00:08:07.938Z,40.87
2018-03-30T00:10:42.001Z,42.37
2018-03-30T00:13:09.650Z,42.57
2018-03-30T00:15:37.337Z,44.90
2018-03-30T00:18:04.994Z,44.20
2018-03-30T00:20:32.671Z,48.00
2018-03-30T00:23:00.348Z,44.33
2018-03-30T00:25:28.023Z,47.07
2018-03-30T00:27:56.489Z,46.20
2018-03-30T00:30:24.200Z,45.80
2018-03-30T00:32:51.851Z,49.10
2018-03-30T00:35:19.487Z,46.17
2018-03-30T00:37:47.911Z,49.10
2018-03-30T00:40:15.572Z,52.80
2018-03-30T00:42:43.231Z,53.87
2018-03-30T00:45:11.668Z,55.40
2018-03-30T00:47:40.217Z,45.73
2018-03-30T00:50:07.895Z,47.77
2018-03-30T00:52:36.314Z,54.97
2018-03-30T00:55:04.008Z,50.47
2018-03-30T00:57:31.690Z,52.13
2018-03-30T00:59:59.344Z,50.73
2018-03-30T01:02:27.000Z,58.30
2018-03-30T01:04:54.663Z,49.57
2018-03-30T01:07:22.310Z,55.17
2018-03-30T01:09:49.989Z,53.00
2018-03-30T01:12:17.646Z,55.57
2018-03-30T01:14:45.365Z,58.50
2018-03-30T01:17:13.055Z,52.13
2018-03-30T01:19:40.739Z,56.13
2018-03-30T01:22:09.267Z,55.73
2018-03-30T01:24:36.947Z,54.20
2018-03-30T01:27:04.660Z,60.93
2018-03-30T01:29:33.073Z,56.37
2018-03-30T01:32:00.765Z,59.33
2018-03-30T01:34:28.466Z,61.13
2018-03-30T01:36:56.160Z,60.17
2018-03-30T01:39:23.856Z,60.70
2018-03-30T01:41:51.514Z,59.27
2018-03-30T01:44:19.201Z,59.63
2018-03-30T01:46:47.617Z,58.20
2018-03-30T01:49:15.416Z,59.73
2018-03-30T01:51:43.941Z,62.60
2018-03-30T01:54:11.694Z,63.03
2018-03-30T01:56:39.460Z,61.07
2018-03-30T01:59:07.212Z,59.17
2018-03-30T02:01:34.974Z,59.40
2018-03-30T02:04:02.742Z,60.60
2018-03-30T02:06:30.512Z,61.27
2018-03-30T02:08:58.294Z,58.33
2018-03-30T02:11:26.042Z,61.40
2018-03-30T02:13:53.793Z,61.43
2018-03-30T02:16:21.560Z,58.87
2018-03-30T02:18:49.318Z,57.67
2018-03-30T02:21:17.078Z,55.90
2018-03-30T02:23:44.889Z,61.57
2018-03-30T02:26:12.661Z,57.70
2018-03-30T02:28:40.409Z,54.00
2018-03-30T02:31:08.105Z,56.83
2018-03-30T02:33:35.835Z,56.90
2018-03-30T02:36:03.680Z,56.70
2018-03-30T02:38:31.355Z,55.37
2018-03-30T02:40:59.789Z,51.63
2018-03-30T02:43:28.223Z,50.83
2018-03-30T02:45:55.880Z,46.53
2018-03-30T02:48:23.549Z,49.73
2018-03-30T02:50:51.279Z,46.37
2018-03-30T02:53:18.959Z,47.87
2018-03-30T02:55:46.640Z,46.80
2018-03-30T02:58:14.326Z,47.53
2018-03-30T03:00:41.987Z,48.17
2018-03-30T03:03:09.696Z,53.50
2018-03-30T03:05:37.362Z,48.83
2018-03-30T03:10:39.066Z,46.80
2018-03-30T03:13:06.765Z,47.70
2018-03-30T03:15:34.437Z,48.60
2018-03-30T03:18:02.241Z,49.57
2018-03-30T03:20:30.735Z,48.57
2018-03-30T03:22:58.403Z,54.30
2018-03-30T03:25:26.061Z,50.80
2018-03-30T03:27:53.735Z,45.70
2018-03-30T03:30:22.201Z,44.53
2018-03-30T03:32:49.936Z,47.37
2018-03-30T03:35:17.616Z,48.50
2018-03-30T03:37:45.275Z,47.00
2018-03-30T03:40:12.925Z,47.17
2018-03-30T03:42:40.606Z,45.63
2018-03-30T03:45:08.272Z,46.97
2018-03-30T03:47:35.947Z,40.27
2018-03-30T03:50:04.429Z,42.70
2018-03-30T03:52:32.870Z,41.80
2018-03-30T03:55:00.620Z,41.97
2018-03-30T03:57:28.306Z,44.13
2018-03-30T03:59:55.975Z,46.03
2018-03-30T04:02:23.648Z,44.23
2018-03-30T04:04:52.091Z,44.70
2018-03-30T04:07:19.772Z,42.10
2018-03-30T04:09:47.611Z,43.43
2018-03-30T04:12:15.247Z,39.77
2018-03-30T04:14:42.900Z,43.40
2018-03-30T04:17:10.550Z,41.40
2018-03-30T04:19:38.217Z,43.20
2018-03-30T04:22:05.935Z,44.27
2018-03-30T04:24:33.633Z,43.07
2018-03-30T04:27:02.095Z,43.37
2018-03-30T04:29:30.576Z,41.30
2018-03-30T04:31:59.008Z,40.37
2018-03-30T04:34:26.661Z,40.13
2018-03-30T04:36:54.437Z,46.10
2018-03-30T04:39:22.133Z,40.30
2018-03-30T04:41:50.579Z,42.20
2018-03-30T04:44:18.258Z,37.97
2018-03-30T04:46:45.935Z,43.03
2018-03-30T04:49:14.349Z,43.03
2018-03-30T04:51:42.012Z,42.43
2018-03-30T04:54:09.697Z,41.80
2018-03-30T04:56:37.378Z,41.30
2018-03-30T04:59:05.121Z,40.07
2018-03-30T05:01:32.826Z,40.83
2018-03-30T05:04:01.232Z,38.97
2018-03-30T05:06:28.904Z,35.73
2018-03-30T05:08:56.585Z,38.07
2018-03-30T05:11:24.257Z,39.87
2018-03-30T05:13:51.918Z,39.80
2018-03-30T05:16:19.576Z,33.80
2018-03-30T05:18:47.254Z,37.47
2018-03-30T05:21:14.987Z,38.50
2018-03-30T05:23:42.675Z,37.17
2018-03-30T05:26:10.358Z,37.10
2018-03-30T05:28:38.796Z,37.30
2018-03-30T05:31:06.496Z,34.50
2018-03-30T05:33:34.922Z,36.70
2018-03-30T05:36:02.606Z,38.50
2018-03-30T05:38:30.261Z,38.97
2018-03-30T05:40:58.019Z,36.70
2018-03-30T05:43:25.826Z,37.10
2018-03-30T05:45:53.579Z,34.57
2018-03-30T05:48:21.391Z,38.57
2018-03-30T05:50:49.168Z,34.30
2018-03-30T05:53:16.932Z,39.40
2018-03-30T05:55:44.705Z,33.27
2018-03-30T05:58:12.482Z,32.37
2018-03-30T06:00:41.047Z,33.20
2018-03-30T06:03:08.863Z,32.17
2018-03-30T06:05:36.623Z,32.70
2018-03-30T06:08:04.472Z,32.43
2018-03-30T06:10:32.976Z,32.80
2018-03-30T06:13:00.663Z,33.07
2018-03-30T06:15:28.323Z,29.10
2018-03-30T06:17:55.993Z,32.07
2018-03-30T06:20:23.676Z,37.10
2018-03-30T06:22:51.411Z,33.90
2018-03-30T06:25:19.100Z,38.50
2018-03-30T06:27:46.783Z,33.37
2018-03-30T06:30:15.257Z,33.80
2018-03-30T06:32:43.702Z,41.20
2018-03-30T06:35:11.374Z,39.67
2018-03-30T06:37:39.132Z,36.20
2018-03-30T06:40:06.877Z,34.17
2018-03-30T06:42:34.533Z,32.00
2018-03-30T06:45:02.213Z,29.53
2018-03-30T06:47:29.881Z,33.93
2018-03-30T06:49:57.535Z,32.80
2018-03-30T06:52:25.259Z,34.23
2018-03-30T06:54:52.935Z,32.30
2018-03-30T06:57:20.593Z,31.83
2018-03-30T07:02:11.824Z,29.47
2018-03-30T07:04:39.482Z,33.77
2018-03-30T07:07:07.167Z,29.97
2018-03-30T07:09:34.828Z,30.17
2018-03-30T07:12:02.511Z,33.00
2018-03-30T07:14:30.152Z,31.00
2018-03-30T07:16:57.827Z,29.73
2018-03-30T07:19:25.510Z,32.93
2018-03-30T07:21:53.934Z,29.00
2018-03-30T07:24:21.618Z,31.27
2018-03-30T07:26:49.275Z,30.07
2018-03-30T07:29:16.949Z,29.97
2018-03-30T07:31:44.646Z,33.47
2018-03-30T07:34:12.340Z,35.07
2018-03-30T07:36:40.084Z,34.57
2018-03-30T07:39:07.867Z,33.60
2018-03-30T07:41:35.627Z,37.30
2018-03-30T07:44:03.403Z,33.53
2018-03-30T07:46:31.144Z,32.53
2018-03-30T07:48:58.900Z,29.27
2018-03-30T07:51:26.667Z,32.27
2018-03-30T07:53:54.494Z,29.13
2018-03-30T07:56:22.281Z,34.30
2018-03-30T07:58:50.057Z,31.33
2018-03-30T08:01:17.825Z,32.20
2018-03-30T08:03:45.639Z,33.03
2018-03-30T08:06:14.183Z,33.97
2018-03-30T08:08:47.679Z,32.90
2018-03-30T08:11:15.464Z,28.03
2018-03-30T08:13:43.998Z,32.10
2018-03-30T08:16:11.768Z,32.60
2018-03-30T08:18:39.532Z,30.77
2018-03-30T08:21:07.337Z,32.13
2018-03-30T08:23:35.934Z,31.07
2018-03-30T08:26:03.792Z,35.50
2018-03-30T08:28:32.312Z,34.13
2018-03-30T08:31:00.106Z,35.03
2018-03-30T08:33:27.859Z,35.00
2018-03-30T08:35:55.638Z,35.50
2018-03-30T08:38:23.394Z,37.67
2018-03-30T08:40:51.173Z,36.03
2018-03-30T08:43:18.955Z,36.03
2018-03-30T08:45:47.527Z,40.57
2018-03-30T08:48:16.090Z,41.57
2018-03-30T08:50:43.862Z,42.07
2018-03-30T08:53:11.634Z,44.80
2018-03-30T08:55:39.423Z,42.73
2018-03-30T08:58:07.184Z,45.17
2018-03-30T09:00:36.695Z,44.57
2018-03-30T09:03:04.498Z,37.63
2018-03-30T09:05:32.266Z,40.00
2018-03-30T09:08:00.181Z,40.93
2018-03-30T09:10:27.953Z,44.90
2018-03-30T09:12:55.737Z,42.00
2018-03-30T09:15:23.523Z,35.70
2018-03-30T09:17:51.462Z,38.37
2018-03-30T09:20:19.251Z,39.20
2018-03-30T09:22:47.032Z,33.73
2018-03-30T09:25:14.862Z,36.77
2018-03-30T09:27:42.650Z,39.40
2018-03-30T09:30:10.415Z,38.27
2018-03-30T09:32:38.182Z,38.80
2018-03-30T09:35:06.004Z,36.87
2018-03-30T09:37:33.767Z,38.03
2018-03-30T09:40:01.524Z,38.03
2018-03-30T09:42:29.284Z,39.17
2018-03-30T09:44:57.060Z,36.97
2018-03-30T09:47:24.810Z,37.27
2018-03-30T09:49:52.546Z,40.77
2018-03-30T09:52:21.064Z,39.20
2018-03-30T09:54:48.879Z,40.30
2018-03-30T09:57:16.702Z,37.57
2018-03-30T09:59:44.428Z,36.30
2018-03-30T10:02:13.171Z,37.63
2018-03-30T10:04:45.849Z,39.87
2018-03-30T10:07:13.606Z,38.60
2018-03-30T10:09:41.366Z,41.40
2018-03-30T10:12:09.100Z,37.10
2018-03-30T10:14:36.948Z,35.97
2018-03-30T10:17:04.713Z,38.60
2018-03-30T10:19:32.452Z,42.17
2018-03-30T10:22:01.008Z,36.10
2018-03-30T10:24:28.787Z,38.07
2018-03-30T10:26:56.584Z,39.40
2018-03-30T10:29:24.339Z,41.03
2018-03-30T10:31:52.843Z,37.50
2018-03-30T10:34:20.617Z,40.77
2018-03-30T10:36:48.399Z,40.10
2018-03-30T10:39:16.189Z,40.17
2018-03-30T10:41:44.047Z,40.83
2018-03-30T10:44:11.856Z,39.30
2018-03-30T10:46:39.616Z,45.27
2018-03-30T10:49:07.372Z,42.03
2018-03-30T10:51:35.172Z,44.80
2018-03-30T10:54:02.943Z,43.33
2018-03-30T10:56:30.710Z,41.97
2018-03-30T10:58:58.476Z,38.77
2018-03-30T11:01:26.222Z,40.27
2018-03-30T11:03:54.003Z,38.13
2018-03-30T11:06:21.868Z,38.30
2018-03-30T11:08:49.653Z,37.20
2018-03-30T11:11:18.229Z,34.73
2018-03-30T11:13:46.011Z,37.20
2018-03-30T11:16:14.540Z,35.03
2018-03-30T11:18:42.317Z,33.60
2018-03-30T11:21:10.085Z,30.93
2018-03-30T11:23:38.065Z,33.73
2018-03-30T11:26:05.912Z,36.03
2018-03-30T11:28:33.666Z,28.20
2018-03-30T11:31:01.543Z,33.37
2018-03-30T11:33:29.313Z,29.37
2018-03-30T11:35:57.089Z,31.83
2018-03-30T11:38:25.697Z,30.80
2018-03-30T11:40:54.253Z,29.03
2018-03-30T11:43:22.044Z,27.73
2018-03-30T11:45:49.814Z,28.33
2018-03-30T11:48:17.576Z,27.70
2018-03-30T11:50:45.390Z,32.43
2018-03-30T11:53:13.310Z,31.97
2018-03-30T11:55:41.087Z,28.90
2018-03-30T11:58:09.662Z,28.63
2018-03-30T12:00:37.478Z,29.83
2018-03-30T12:03:05.267Z,26.77
2018-03-30T12:05:33.912Z,29.53
2018-03-30T12:08:01.720Z,27.53
2018-03-30T12:10:29.526Z,28.27
2018-03-30T12:12:57.307Z,25.40
2018-03-30T12:15:25.065Z,26.63
2018-03-30T12:17:52.810Z,21.60
2018-03-30T12:20:20.556Z,21.03
2018-03-30T12:22:48.341Z,25.37
2018-03-30T12:25:16.132Z,23.53
2018-03-30T12:27:43.892Z,23.13
2018-03-30T12:30:11.673Z,24.40
2018-03-30T12:32:40.204Z,25.50
2018-03-30T12:35:08.004Z,26.00
2018-03-30T12:37:36.606Z,23.60
2018-03-30T12:40:05.166Z,23.97
2018-03-30T12:42:32.989Z,20.87
2018-03-30T12:45:00.784Z,19.80
2018-03-30T12:47:28.584Z,21.03
2018-03-30T12:49:57.126Z,18.93
2018-03-30T12:52:24.890Z,21.10
2018-03-30T12:54:52.714Z,21.43
2018-03-30T12:57:20.481Z,18.20
2018-03-30T12:59:48.383Z,21.23
2018-03-30T13:02:16.154Z,18.77
2018-03-30T13:04:43.911Z,15.47
2018-03-30T13:07:11.693Z,14.30
2018-03-30T13:09:40.228Z,13.30
2018-03-30T13:12:07.994Z,15.20
2018-03-30T13:14:35.840Z,21.43
2018-03-30T13:17:03.648Z,14.93
2018-03-30T13:19:31.380Z,12.57
2018-03-30T13:21:59.147Z,12.93
2018-03-30T13:24:26.932Z,14.70
2018-03-30T13:26:54.756Z,14.23
2018-03-30T13:29:22.532Z,10.00
2018-03-30T13:31:50.301Z,6.17
2018-03-30T13:34:18.084Z,6.60
2018-03-30T13:36:45.879Z,5.43
2018-03-30T13:39:14.527Z,4.60
2018-03-30T13:41:42.313Z,5.03
2018-03-30T13:44:10.064Z,4.50
2018-03-30T13:46:37.842Z,5.83
2018-03-30T13:49:05.603Z,6.57
2018-03-30T13:51:43.225Z,4.97
2018-03-30T13:54:14.237Z,6.40
2018-03-30T13:56:53.003Z,4.10
2018-03-30T13:59:37.567Z,3.33
2018-03-30T14:02:14.276Z,7.20
2018-03-30T14:04:58.804Z,3.90
2018-03-30T14:07:26.647Z,5.47
2018-03-30T14:09:58.376Z,2.87
2018-03-30T14:12:34.485Z,5.10
2018-03-30T14:15:02.329Z,3.03
2018-03-30T14:17:36.041Z,6.07
2018-03-30T14:20:08.702Z,3.43
2018-03-30T14:22:37.504Z,2.50
2018-03-30T14:25:06.229Z,3.97
2018-03-30T14:27:37.952Z,6.73
2018-03-30T14:30:20.609Z,5.53
2018-03-30T14:32:54.140Z,3.63
2018-03-30T14:35:47.517Z,6.00
2018-03-30T14:38:32.004Z,3.40
2018-03-30T14:41:00.597Z,4.00
2018-03-30T14:43:29.383Z,1.90
2018-03-30T14:45:59.797Z,3.73
2018-03-30T14:48:28.402Z,3.17
2018-03-30T14:51:11.618Z,3.13
2018-03-30T14:53:55.018Z,4.23
2018-03-30T14:56:32.580Z,8.83
2018-03-30T14:59:16.935Z,5.13
2018-03-30T15:01:50.462Z,8.60
2018-03-30T15:04:23.963Z,7.57
2018-03-30T15:07:09.560Z,3.70
2018-03-30T15:09:42.907Z,7.63
2018-03-30T15:15:10.543Z,3.90
2018-03-30T15:17:44.247Z,4.80
2018-03-30T15:20:12.814Z,5.47
2018-03-30T15:22:44.280Z,10.47
2018-03-30T15:25:28.853Z,9.37
2018-03-30T15:27:59.122Z,4.47
2018-03-30T15:30:32.673Z,6.53
2018-03-30T15:33:04.839Z,5.63
2018-03-30T15:35:34.239Z,7.43
2018-03-30T15:38:02.809Z,6.67
2018-03-30T15:40:32.532Z,4.63
2018-03-30T15:43:11.919Z,8.67
2018-03-30T15:45:56.378Z,6.63
2018-03-30T15:48:24.200Z,5.17
2018-03-30T15:50:52.730Z,11.03
2018-03-30T15:53:19.982Z,7.37
2018-03-30T15:55:48.673Z,6.30
2018-03-30T15:58:16.551Z,7.97
2018-03-30T16:00:44.371Z,6.33
2018-03-30T16:03:12.173Z,6.60
2018-03-30T16:05:40.003Z,4.30
2018-03-30T16:08:07.802Z,9.00
2018-03-30T16:10:37.163Z,6.80
2018-03-30T16:13:04.956Z,6.10
2018-03-30T16:15:32.749Z,7.30
2018-03-30T16:18:01.344Z,5.50
2018-03-30T16:20:29.346Z,6.83
2018-03-30T16:22:57.343Z,3.07
2018-03-30T16:25:24.643Z,7.43
2018-03-30T16:27:52.010Z,3.97
2018-03-30T16:30:19.265Z,13.93
2018-03-30T16:32:46.517Z,4.27
2018-03-30T16:35:13.773Z,5.50
2018-03-30T16:37:41.046Z,9.30
2018-03-30T16:40:08.458Z,3.93
2018-03-30T16:42:35.705Z,6.03
2018-03-30T16:45:02.940Z,5.53
2018-03-30T16:47:30.981Z,8.53
2018-03-30T16:49:58.256Z,5.10
2018-03-30T16:52:26.280Z,6.17
2018-03-30T16:54:53.536Z,5.77
2018-03-30T16:57:20.791Z,14.37
2018-03-30T16:59:48.024Z,8.60
2018-03-30T17:02:15.285Z,6.63
2018-03-30T17:04:42.567Z,5.73
2018-03-30T17:07:09.812Z,8.30
2018-03-30T17:09:37.081Z,6.40
2018-03-30T17:12:05.125Z,7.73
2018-03-30T17:14:32.371Z,7.93
2018-03-30T17:16:59.617Z,7.23
2018-03-30T17:19:26.921Z,3.23
2018-03-30T17:21:54.952Z,6.27
2018-03-30T17:24:22.203Z,4.30
2018-03-30T17:26:49.445Z,5.30
2018-03-30T17:29:16.651Z,6.67
2018-03-30T17:31:44.572Z,7.27
2018-03-30T17:34:11.748Z,7.70
2018-03-30T17:36:39.729Z,6.63
2018-03-30T17:39:07.653Z,6.23
2018-03-30T17:41:34.803Z,5.20
2018-03-30T17:44:02.063Z,5.80
2018-03-30T17:46:29.343Z,8.93
2018-03-30T17:48:57.370Z,6.37
2018-03-30T17:51:24.640Z,7.03
2018-03-30T17:53:51.924Z,8.00
2018-03-30T17:56:19.184Z,3.50
2018-03-30T17:58:46.437Z,5.83
2018-03-30T18:01:13.724Z,6.23
2018-03-30T18:03:41.010Z,10.10
2018-03-30T18:06:09.064Z,8.43
2018-03-30T18:08:36.342Z,8.77
2018-03-30T18:11:04.380Z,5.60
2018-03-30T18:13:31.653Z,10.40
2018-03-30T18:15:58.855Z,8.70
2018-03-30T18:18:26.019Z,5.47
2018-03-30T18:20:53.272Z,6.00
2018-03-30T18:23:20.518Z,5.17
2018-03-30T18:25:47.796Z,9.80
2018-03-30T18:28:15.875Z,10.40
2018-03-30T18:30:43.893Z,4.37
2018-03-30T18:33:11.165Z,3.17
2018-03-30T18:35:39.192Z,5.47
2018-03-30T18:38:06.434Z,6.70
2018-03-30T18:40:33.693Z,6.40
2018-03-30T18:43:01.739Z,7.70
2018-03-30T18:45:29.806Z,7.80
2018-03-30T18:47:57.846Z,4.10
2018-03-30T18:50:25.193Z,5.17
2018-03-30T18:52:52.496Z,7.70
2018-03-30T18:55:19.803Z,8.03
2018-03-30T18:57:47.110Z,4.67
2018-03-30T19:00:14.410Z,5.73
2018-03-30T19:02:41.720Z,8.40
2018-03-30T19:05:09.010Z,4.27
2018-03-30T19:07:37.137Z,6.63
2018-03-30T19:10:04.444Z,5.37
2018-03-30T19:12:31.742Z,5.93
2018-03-30T19:14:59.132Z,5.07
2018-03-30T19:17:26.421Z,8.00
2018-03-30T19:19:54.480Z,4.10
2018-03-30T19:22:21.756Z,3.90
2018-03-30T19:24:49.824Z,8.13
2018-03-30T19:27:17.871Z,9.27
2018-03-30T19:29:45.163Z,7.33
2018-03-30T19:32:12.476Z,6.37
2018-03-30T19:34:39.797Z,7.67
2018-03-30T19:37:07.074Z,6.53
2018-03-30T19:39:35.192Z,7.37
2018-03-30T19:42:02.486Z,6.87
2018-03-30T19:44:29.765Z,5.63
2018-03-30T19:46:57.850Z,3.50
2018-03-30T19:49:25.930Z,5.70
2018-03-30T19:51:53.332Z,3.77
2018-03-30T19:54:20.616Z,4.33
2018-03-30T19:56:48.654Z,4.77
2018-03-30T19:59:16.736Z,4.63
2018-03-30T20:01:44.032Z,6.17
2018-03-30T20:04:11.379Z,7.63
2018-03-30T20:06:38.673Z,6.27
2018-03-30T20:09:06.031Z,4.93
2018-03-30T20:11:33.335Z,7.07
2018-03-30T20:14:01.410Z,5.47
2018-03-30T20:19:02.172Z,3.90
2018-03-30T20:21:29.466Z,5.73
2018-03-30T20:23:56.817Z,5.27
2018-03-30T20:26:24.114Z,8.07
2018-03-30T20:28:51.289Z,9.10
2018-03-30T20:31:18.452Z,7.20
2018-03-30T20:33:45.607Z,5.57
2018-03-30T20:36:12.778Z,5.20
2018-03-30T20:38:39.931Z,7.27
2018-03-30T20:41:07.202Z,6.97
2018-03-30T20:43:34.375Z,4.97
2018-03-30T20:46:01.601Z,5.50
2018-03-30T20:48:29.639Z,6.20
2018-03-30T20:50:56.913Z,5.47
2018-03-30T20:53:24.959Z,8.23
2018-03-30T20:55:52.212Z,3.93
2018-03-30T20:58:19.454Z,6.23
2018-03-30T21:00:46.746Z,6.43
2018-03-30T21:03:14.004Z,7.27
2018-03-30T21:05:41.289Z,3.03
2018-03-30T21:08:08.557Z,5.13
2018-03-30T21:10:35.888Z,5.97
2018-03-30T21:13:03.149Z,5.30
2018-03-30T21:15:30.444Z,5.57
2018-03-30T21:17:58.498Z,6.00
2018-03-30T21:20:25.755Z,6.17
2018-03-30T21:22:53.040Z,2.37
2018-03-30T21:25:20.311Z,5.90
2018-03-30T21:27:47.683Z,5.17
2018-03-30T21:30:14.972Z,3.80
2018-03-30T21:32:43.008Z,7.17
2018-03-30T21:35:10.437Z,6.37
2018-03-30T21:37:37.762Z,3.60
2018-03-30T21:40:05.031Z,4.17
2018-03-30T21:42:32.299Z,5.90
2018-03-30T21:44:59.557Z,4.50
2018-03-30T21:47:26.873Z,3.00
2018-03-30T21:49:54.899Z,5.23
2018-03-30T21:52:22.181Z,2.87
2018-03-30T21:54:50.216Z,5.57
2018-03-30T21:57:17.559Z,5.33
2018-03-30T21:59:44.920Z,3.97
2018-03-30T22:02:12.195Z,3.33
2018-03-30T22:04:39.436Z,4.40
2018-03-30T22:07:06.684Z,3.47
2018-03-30T22:09:33.942Z,7.37
2018-03-30T22:12:01.199Z,2.63
2018-03-30T22:14:28.474Z,3.67
2018-03-30T22:16:55.738Z,3.30
2018-03-30T22:19:22.986Z,7.17
2018-03-30T22:21:50.218Z,4.73
2018-03-30T22:24:18.247Z,7.03
2018-03-30T22:26:45.478Z,6.53
2018-03-30T22:29:12.744Z,4.93
2018-03-30T22:31:40.002Z,5.53
2018-03-30T22:34:07.252Z,4.97
2018-03-30T22:36:34.515Z,3.20
2018-03-30T22:39:01.769Z,4.40
2018-03-30T22:41:29.030Z,4.07
2018-03-30T22:43:56.268Z,5.27
2018-03-30T22:46:23.504Z,5.30
2018-03-30T22:48:50.734Z,4.40
2018-03-30T22:51:18.049Z,5.97
2018-03-30T22:53:46.043Z,5.20
2018-03-30T22:56:13.282Z,3.33
2018-03-30T22:58:40.552Z,2.17
2018-03-30T23:01:07.802Z,4.57
2018-03-30T23:03:35.051Z,1.77
2018-03-30T23:06:02.310Z,2.80
2018-03-30T23:08:29.570Z,3.03
2018-03-30T23:10:56.835Z,3.67
2018-03-30T23:13:24.130Z,3.27
2018-03-30T23:15:52.146Z,3.27
2018-03-30T23:18:19.376Z,2.97
2018-03-30T23:20:46.533Z,3.33
2018-03-30T23:23:13.719Z,4.70
2018-03-30T23:25:40.958Z,4.77
2018-03-30T23:28:08.140Z,2.33
2018-03-30T23:30:35.356Z,3.93
2018-03-30T23:33:02.516Z,3.33
2018-03-30T23:35:29.666Z,4.77
2018-03-30T23:37:56.815Z,3.77
2018-03-30T23:40:23.982Z,4.70
2018-03-30T23:42:51.203Z,4.43
2018-03-30T23:45:18.385Z,9.03
2018-03-30T23:47:45.566Z,6.77
2018-03-30T23:50:12.708Z,5.87
2018-03-30T23:52:40.700Z,6.10
2018-03-30T23:55:07.879Z,4.47
2018-03-30T23:57:35.051Z,8.67
